Time;durP1;ratioP1;P1;durP2;ratioP2;P2;SDS_P1;SDS_P2;PMS_P1;PMS_P2;Temp;Humidity;BMP_temperature;BMP_pressure;BME280_temperature;BME280_humidity;BME280_pressure;Samples;Min_cycle;Max_cycle;Signal;HPM_P1;HPM_P2
2023/03/24 00:02:09;;;;;;;16.58;6.60;;;;;;;;;;4999899;28;20049;-77
2023/03/24 00:04:35;;;;;;;13.52;6.43;;;;;;;;;;5002597;28;20083;-77
2023/03/24 00:07:03;;;;;;;10.30;5.95;;;;;;;;;;5019027;28;20040;-76
2023/03/24 00:09:29;;;;;;;13.55;6.55;;;;;;;;;;5004927;28;20138;-77
2023/03/24 00:11:56;;;;;;;9.63;5.18;;;;;;;;;;5007454;28;20141;-77
2023/03/24 00:14:23;;;;;;;12.30;6.43;;;;;;;;;;4999731;28;20037;-77
2023/03/24 00:16:49;;;;;;;14.75;6.40;;;;;;;;;;4993516;28;20069;-77
2023/03/24 00:19:16;;;;;;;9.52;5.80;;;;;;;;;;5017791;28;20041;-77
2023/03/24 00:21:43;;;;;;;9.98;5.82;;;;;;;;;;5015872;28;20041;-76
2023/03/24 00:24:10;;;;;;;13.65;6.70;;;;;;;;;;5017755;28;20037;-76
2023/03/24 00:26:37;;;;;;;12.15;5.50;;;;;;;;;;5020859;28;20116;-76
2023/03/24 00:29:04;;;;;;;14.80;6.55;;;;;;;;;;5000517;28;20052;-76
2023/03/24 00:31:30;;;;;;;10.13;6.18;;;;;;;;;;5014050;28;20133;-76
2023/03/24 00:33:57;;;;;;;12.10;5.80;;;;;;;;;;5002266;28;20123;-76
2023/03/24 00:36:25;;;;;;;12.50;6.70;;;;;;;;;;4995479;28;20049;-76
2023/03/24 00:38:52;;;;;;;11.27;5.32;;;;;;;;;;5015313;28;20037;-76
2023/03/24 00:41:19;;;;;;;12.13;5.53;;;;;;;;;;5016639;28;20048;-76
2023/03/24 00:43:46;;;;;;;14.75;5.07;;;;;;;;;;5001749;28;20037;-76
2023/03/24 00:46:27;;;;;;;14.25;6.20;;;;;;;;;;5014537;28;20080;-76
2023/03/24 00:49:01;;;;;;;12.45;5.82;;;;;;;;;;5002580;28;20072;-76
2023/03/24 00:51:27;;;;;;;;;;;;;;;;;;5030007;28;20049;-76
2023/03/24 00:53:56;;;;;;;13.18;6.10;;;;;;;;;;4996638;28;19947;-76
2023/03/24 00:56:26;;;;;;;9.15;5.93;;;;;;;;;;5013419;28;20056;-76
2023/03/24 00:58:56;;;;;;;8.23;4.90;;;;;;;;;;5012695;28;20038;-76
2023/03/24 01:01:23;;;;;;;10.40;5.38;;;;;;;;;;5001307;28;20039;-76
2023/03/24 01:03:49;;;;;;;12.63;5.72;;;;;;;;;;4999136;28;20183;-77
2023/03/24 01:06:17;;;;;;;15.05;5.95;;;;;;;;;;4998172;28;20073;-77
2023/03/24 01:08:43;;;;;;;8.52;5.32;;;;;;;;;;4986335;28;20480;-77
2023/03/24 01:11:11;;;;;;;11.52;6.05;;;;;;;;;;5010924;28;20338;-77
2023/03/24 01:13:38;;;;;;;12.85;6.38;;;;;;;;;;5003421;28;20622;-77
2023/03/24 01:16:05;;;;;;;12.80;7.38;;;;;;;;;;5012194;28;20045;-77
2023/03/24 01:18:33;;;;;;;9.70;5.72;;;;;;;;;;5014268;28;20564;-78
2023/03/24 01:21:00;;;;;;;16.80;7.78;;;;;;;;;;5005703;28;20049;-78
2023/03/24 01:23:26;;;;;;;10.10;6.32;;;;;;;;;;5011205;28;20060;-77
2023/03/24 01:25:53;;;;;;;13.43;6.60;;;;;;;;;;4992093;28;20052;-78
2023/03/24 01:28:22;;;;;;;11.93;7.28;;;;;;;;;;5010486;28;20049;-77
2023/03/24 01:30:49;;;;;;;13.85;7.25;;;;;;;;;;5011292;28;20116;-78
2023/03/24 01:33:15;;;;;;;9.80;7.22;;;;;;;;;;4997765;28;20124;-77
2023/03/24 01:35:41;;;;;;;13.55;6.78;;;;;;;;;;4996962;28;20056;-78
2023/03/24 01:38:08;;;;;;;15.10;8.02;;;;;;;;;;4996499;28;20049;-78
2023/03/24 01:40:35;;;;;;;14.30;7.30;;;;;;;;;;5013356;28;20539;-78
2023/03/24 01:43:02;;;;;;;13.63;6.95;;;;;;;;;;4995069;28;20049;-78
2023/03/24 01:45:34;;;;;;;8.88;5.85;;;;;;;;;;4999222;28;20131;-78
2023/03/24 01:48:00;;;;;;;11.52;6.40;;;;;;;;;;5014261;28;20053;-78
2023/03/24 01:50:27;;;;;;;11.73;6.78;;;;;;;;;;5003381;28;22037;-78
2023/03/24 01:52:53;;;;;;;10.23;7.50;;;;;;;;;;4982040;28;20053;-78
2023/03/24 01:55:19;;;;;;;12.63;7.28;;;;;;;;;;4979275;28;20064;-78
2023/03/24 01:57:48;;;;;;;11.27;6.32;;;;;;;;;;4993171;28;20162;-77
2023/03/24 02:00:17;;;;;;;11.40;6.85;;;;;;;;;;4997572;28;20647;-78
2023/03/24 02:02:46;;;;;;;16.38;8.95;;;;;;;;;;5012117;28;20701;-78
2023/03/24 02:05:14;;;;;;;13.30;6.72;;;;;;;;;;5001968;28;20051;-78
2023/03/24 02:07:58;;;;;;;10.05;6.50;;;;;;;;;;4994476;28;20049;-77
2023/03/24 02:10:24;;;;;;;12.35;5.38;;;;;;;;;;4991211;28;20415;-78
2023/03/24 02:12:50;;;;;;;10.50;6.80;;;;;;;;;;5011420;28;20081;-77
2023/03/24 02:15:17;;;;;;;15.70;6.78;;;;;;;;;;4995462;28;20072;-77
2023/03/24 02:17:56;;;;;;;10.32;6.88;;;;;;;;;;5013417;28;20052;-77
2023/03/24 02:20:25;;;;;;;11.70;6.93;;;;;;;;;;4997209;28;20048;-78
2023/03/24 02:23:00;;;;;;;15.30;7.07;;;;;;;;;;4992981;28;20045;-78
2023/03/24 02:25:53;;;;;;;10.98;7.60;;;;;;;;;;5013080;28;20678;-78
2023/03/24 02:28:28;;;;;;;7.90;6.13;;;;;;;;;;4984896;28;20144;-78
2023/03/24 02:31:16;;;;;;;12.45;6.90;;;;;;;;;;4981440;28;20730;-78
2023/03/24 02:33:49;;;;;;;13.18;7.32;;;;;;;;;;4985640;28;20046;-78
2023/03/24 02:36:35;;;;;;;13.25;6.72;;;;;;;;;;4983182;28;20701;-77
2023/03/24 02:39:20;;;;;;;9.15;5.95;;;;;;;;;;4991684;28;20040;-78
2023/03/24 02:41:46;;;;;;;13.05;6.20;;;;;;;;;;4981919;28;20059;-77
2023/03/24 02:44:12;;;;;;;14.10;7.13;;;;;;;;;;4998406;28;20037;-77
2023/03/24 02:46:38;;;;;;;12.65;6.57;;;;;;;;;;5006907;28;20037;-78
2023/03/24 02:49:23;;;;;;;10.77;7.03;;;;;;;;;;5000184;28;20045;-78
2023/03/24 02:51:53;;;;;;;9.13;6.45;;;;;;;;;;5017216;28;20500;-78
2023/03/24 02:54:25;;;;;;;9.90;7.03;;;;;;;;;;5016473;28;20044;-79
2023/03/24 02:56:54;;;;;;;9.85;6.18;;;;;;;;;;5005227;28;20050;-78
2023/03/24 02:59:31;;;;;;;10.02;7.10;;;;;;;;;;4996073;28;20041;-78
2023/03/24 03:02:03;;;;;;;11.10;7.13;;;;;;;;;;5004101;28;20670;-78
2023/03/24 03:04:45;;;;;;;10.35;7.05;;;;;;;;;;4986312;28;20138;-77
2023/03/24 03:07:15;;;;;;;10.45;6.22;;;;;;;;;;4991424;28;20037;-77
2023/03/24 03:09:44;;;;;;;9.57;5.80;;;;;;;;;;5004553;28;20056;-76
2023/03/24 03:12:11;;;;;;;10.20;6.25;;;;;;;;;;5020259;28;20073;-78
2023/03/24 03:15:07;;;;;;;9.23;6.47;;;;;;;;;;5011195;28;20159;-76
2023/03/24 03:17:37;;;;;;;9.48;6.05;;;;;;;;;;4989243;28;20056;-77
2023/03/24 03:20:06;;;;;;;7.28;5.65;;;;;;;;;;4997456;28;20040;-77
2023/03/24 03:22:38;;;;;;;8.82;5.80;;;;;;;;;;4990609;28;20029;-78
2023/03/24 03:25:05;;;;;;;7.85;6.45;;;;;;;;;;5006469;28;20064;-78
2023/03/24 03:27:37;;;;;;;10.20;5.95;;;;;;;;;;5008328;28;20248;-79
2023/03/24 03:30:24;;;;;;;10.52;7.35;;;;;;;;;;4997623;28;20128;-78
2023/03/24 03:33:02;;;;;;;11.55;7.43;;;;;;;;;;5006496;28;20547;-78
2023/03/24 03:35:51;;;;;;;9.52;6.88;;;;;;;;;;5000779;28;20045;-78
2023/03/24 03:38:21;;;;;;;11.43;7.85;;;;;;;;;;4997950;28;20040;-78
2023/03/24 03:40:48;;;;;;;14.32;7.13;;;;;;;;;;5016468;28;20390;-78
2023/03/24 03:43:14;;;;;;;9.40;6.15;;;;;;;;;;5020986;28;20048;-78
2023/03/24 03:45:40;;;;;;;9.25;6.05;;;;;;;;;;4989222;28;20075;-78
2023/03/24 03:48:06;;;;;;;9.40;7.15;;;;;;;;;;4999667;28;20073;-80
2023/03/24 03:50:33;;;;;;;11.52;5.88;;;;;;;;;;4983483;28;20051;-79
2023/03/24 03:53:00;;;;;;;8.85;5.20;;;;;;;;;;4987508;28;20508;-79
2023/03/24 03:55:26;;;;;;;5.68;4.60;;;;;;;;;;4998650;28;20136;-78
2023/03/24 03:57:53;;;;;;;7.43;4.55;;;;;;;;;;4999272;28;20041;-78
2023/03/24 04:00:21;;;;;;;9.57;5.13;;;;;;;;;;4996924;28;20052;-77
2023/03/24 04:02:53;;;;;;;12.13;5.22;;;;;;;;;;5009964;28;20065;-77
2023/03/24 04:05:28;;;;;;;11.52;4.30;;;;;;;;;;4983866;28;20037;-76
2023/03/24 04:08:11;;;;;;;8.75;4.57;;;;;;;;;;4998233;28;20933;-77
2023/03/24 04:10:52;;;;;;;7.20;4.90;;;;;;;;;;4999190;28;20052;-76
2023/03/24 04:13:24;;;;;;;13.27;4.95;;;;;;;;;;4983201;28;20044;-76
2023/03/24 04:15:55;;;;;;;9.57;4.07;;;;;;;;;;4999424;28;20045;-76
2023/03/24 04:18:41;;;;;;;10.48;4.20;;;;;;;;;;5002335;28;20064;-76
2023/03/24 04:21:32;;;;;;;8.05;3.70;;;;;;;;;;5002438;28;20033;-76
2023/03/24 04:24:17;;;;;;;5.05;2.28;;;;;;;;;;5000122;28;20033;-76
2023/03/24 04:26:47;;;;;;;9.38;3.30;;;;;;;;;;4982468;28;20053;-76
2023/03/24 04:29:16;;;;;;;10.07;2.67;;;;;;;;;;5007654;28;20045;-76
2023/03/24 04:31:48;;;;;;;7.72;2.25;;;;;;;;;;4987022;28;20201;-76
2023/03/24 04:34:24;;;;;;;4.28;1.67;;;;;;;;;;5000345;28;20705;-76
2023/03/24 04:37:11;;;;;;;6.05;2.20;;;;;;;;;;5000968;28;20045;-76
2023/03/24 04:39:39;;;;;;;11.15;2.20;;;;;;;;;;5001009;28;20041;-76
2023/03/24 04:42:18;;;;;;;18.15;3.10;;;;;;;;;;5011059;28;20053;-76
2023/03/24 04:44:44;;;;;;;9.32;2.53;;;;;;;;;;5011189;28;20098;-76
2023/03/24 04:47:11;;;;;;;10.40;2.50;;;;;;;;;;5012821;28;20128;-75
2023/03/24 04:49:39;;;;;;;8.38;1.90;;;;;;;;;;5009489;28;20045;-75
2023/03/24 04:52:06;;;;;;;10.57;2.50;;;;;;;;;;5011365;28;20052;-75
2023/03/24 04:54:33;;;;;;;15.30;2.38;;;;;;;;;;4995662;28;20485;-75
2023/03/24 04:57:00;;;;;;;11.65;2.10;;;;;;;;;;5015017;28;20052;-75
2023/03/24 04:59:27;;;;;;;15.68;2.75;;;;;;;;;;5012971;28;20563;-75
2023/03/24 05:01:53;;;;;;;8.32;1.92;;;;;;;;;;4997555;28;20053;-75
2023/03/24 05:04:29;;;;;;;12.93;2.83;;;;;;;;;;5010095;28;20264;-75
2023/03/24 05:06:55;;;;;;;8.52;1.90;;;;;;;;;;5012277;28;20049;-75
2023/03/24 05:09:23;;;;;;;15.43;2.53;;;;;;;;;;5006959;28;20116;-76
2023/03/24 05:11:49;;;;;;;13.00;2.13;;;;;;;;;;4990898;28;20052;-76
2023/03/24 05:14:16;;;;;;;11.50;2.33;;;;;;;;;;5007101;28;20737;-76
2023/03/24 05:16:42;;;;;;;10.55;2.42;;;;;;;;;;5006468;28;20069;-76
2023/03/24 05:19:08;;;;;;;11.13;1.90;;;;;;;;;;4997132;28;20172;-76
2023/03/24 05:21:34;;;;;;;10.82;2.50;;;;;;;;;;4992992;28;20052;-76
2023/03/24 05:24:00;;;;;;;9.40;2.22;;;;;;;;;;4995718;28;20045;-76
2023/03/24 05:26:27;;;;;;;9.07;2.53;;;;;;;;;;5002272;28;20464;-76
2023/03/24 05:28:53;;;;;;;9.90;2.33;;;;;;;;;;5014216;28;20045;-76
2023/03/24 05:31:19;;;;;;;15.07;2.50;;;;;;;;;;5008715;28;20037;-76
2023/03/24 05:33:45;;;;;;;9.13;1.77;;;;;;;;;;5013660;28;20152;-76
2023/03/24 05:36:11;;;;;;;13.13;2.90;;;;;;;;;;4994961;28;20044;-76
2023/03/24 05:38:38;;;;;;;10.25;1.88;;;;;;;;;;4997198;28;20123;-76
2023/03/24 05:41:04;;;;;;;13.93;2.35;;;;;;;;;;5015054;28;20578;-76
2023/03/24 05:43:30;;;;;;;10.25;2.20;;;;;;;;;;5013429;28;20044;-76
2023/03/24 05:45:58;;;;;;;15.82;3.67;;;;;;;;;;5014812;28;20055;-76
2023/03/24 05:48:25;;;;;;;18.00;3.13;;;;;;;;;;5011093;28;20125;-76
2023/03/24 05:50:51;;;;;;;12.55;2.38;;;;;;;;;;5009757;28;20138;-76
2023/03/24 05:53:17;;;;;;;14.43;2.60;;;;;;;;;;4993306;28;20086;-76
2023/03/24 05:55:44;;;;;;;19.85;3.03;;;;;;;;;;4991517;28;20190;-76
2023/03/24 05:58:11;;;;;;;14.48;3.15;;;;;;;;;;5006244;28;21284;-76
2023/03/24 06:00:37;;;;;;;10.52;2.22;;;;;;;;;;5020814;28;20037;-76
2023/03/24 06:03:04;;;;;;;14.32;2.55;;;;;;;;;;5005933;28;20053;-76
2023/03/24 06:05:30;;;;;;;10.85;2.42;;;;;;;;;;4998717;28;20516;-76
2023/03/24 06:07:57;;;;;;;12.32;2.45;;;;;;;;;;5009853;28;20067;-76
2023/03/24 06:10:27;;;;;;;14.73;3.13;;;;;;;;;;5013170;28;20045;-76
2023/03/24 06:12:54;;;;;;;13.98;2.97;;;;;;;;;;5018685;28;20113;-76
2023/03/24 06:15:21;;;;;;;12.13;2.97;;;;;;;;;;5012414;28;20053;-76
2023/03/24 06:17:48;;;;;;;20.33;3.92;;;;;;;;;;5010102;28;20055;-76
2023/03/24 06:20:16;;;;;;;13.45;2.65;;;;;;;;;;5012069;28;20428;-76
2023/03/24 06:22:44;;;;;;;13.30;3.33;;;;;;;;;;5010294;28;20056;-76
2023/03/24 06:25:11;;;;;;;17.40;4.35;;;;;;;;;;5010759;28;20203;-76
2023/03/24 06:27:37;;;;;;;15.38;3.92;;;;;;;;;;5010999;28;20044;-76
2023/03/24 06:30:04;;;;;;;19.75;3.50;;;;;;;;;;5010945;28;20053;-76
2023/03/24 06:32:30;;;;;;;9.18;3.15;;;;;;;;;;4993362;28;20140;-76
2023/03/24 06:34:56;;;;;;;13.68;2.70;;;;;;;;;;4987200;28;21708;-76
2023/03/24 06:37:22;;;;;;;12.85;2.08;;;;;;;;;;5011670;28;20041;-76
2023/03/24 06:39:48;;;;;;;10.00;2.78;;;;;;;;;;5014900;28;20548;-75
2023/03/24 06:42:15;;;;;;;12.57;2.10;;;;;;;;;;5014163;28;20045;-75
2023/03/24 06:44:41;;;;;;;20.95;3.92;;;;;;;;;;4999458;28;20509;-76
2023/03/24 06:47:07;;;;;;;12.70;2.58;;;;;;;;;;5008608;28;20151;-76
2023/03/24 06:49:35;;;;;;;11.93;2.92;;;;;;;;;;4996534;28;20044;-76
2023/03/24 06:52:02;;;;;;;16.00;2.55;;;;;;;;;;4985654;28;20128;-76
2023/03/24 06:54:28;;;;;;;18.35;2.85;;;;;;;;;;4994821;28;20080;-82
2023/03/24 06:56:55;;;;;;;17.90;3.25;;;;;;;;;;5014385;28;20048;-80
2023/03/24 06:59:23;;;;;;;13.40;2.35;;;;;;;;;;5002486;28;20132;-81
2023/03/24 07:01:53;;;;;;;9.70;2.40;;;;;;;;;;5004651;28;20041;-81
2023/03/24 07:04:20;;;;;;;10.45;2.40;;;;;;;;;;5019856;28;20084;-82
2023/03/24 07:06:46;;;;;;;14.48;2.50;;;;;;;;;;5004894;28;20766;-82
2023/03/24 07:09:12;;;;;;;14.82;2.25;;;;;;;;;;5021080;28;20057;-83
2023/03/24 07:11:39;;;;;;;12.98;2.10;;;;;;;;;;5020631;28;20047;-83
2023/03/24 07:14:06;;;;;;;15.27;2.65;;;;;;;;;;5011916;28;20046;-83
2023/03/24 07:16:32;;;;;;;17.17;2.50;;;;;;;;;;5000760;28;20060;-83
2023/03/24 07:18:58;;;;;;;15.13;2.72;;;;;;;;;;5022733;28;20456;-83
2023/03/24 07:21:24;;;;;;;11.13;2.15;;;;;;;;;;5004915;28;20033;-83
2023/03/24 07:23:50;;;;;;;15.18;3.45;;;;;;;;;;5008214;28;20045;-81
2023/03/24 07:26:16;;;;;;;14.75;2.92;;;;;;;;;;5000642;28;20076;-82
2023/03/24 07:28:42;;;;;;;13.85;2.33;;;;;;;;;;5003497;28;20044;-82
2023/03/24 07:31:09;;;;;;;9.18;2.13;;;;;;;;;;5016891;28;20401;-82
2023/03/24 07:33:39;;;;;;;12.00;2.75;;;;;;;;;;5015708;28;20102;-82
2023/03/24 07:36:06;;;;;;;15.65;3.30;;;;;;;;;;5018123;28;20502;-82
2023/03/24 07:38:32;;;;;;;14.30;3.00;;;;;;;;;;5030732;28;20052;-82
2023/03/24 07:40:59;;;;;;;20.63;2.80;;;;;;;;;;5020829;28;20486;-82
2023/03/24 07:43:25;;;;;;;15.13;3.05;;;;;;;;;;5017622;28;20132;-82
2023/03/24 07:45:52;;;;;;;18.45;3.63;;;;;;;;;;5023269;28;20047;-81
2023/03/24 07:48:18;;;;;;;11.23;2.92;;;;;;;;;;5004271;28;20966;-81
2023/03/24 07:50:44;;;;;;;12.98;2.13;;;;;;;;;;5005148;28;20061;-81
2023/03/24 07:53:10;;;;;;;10.80;2.53;;;;;;;;;;5012943;28;20560;-80
2023/03/24 07:55:37;;;;;;;22.65;4.32;;;;;;;;;;5017857;28;20516;-81
2023/03/24 07:58:04;;;;;;;16.20;2.78;;;;;;;;;;5015713;28;20038;-81
2023/03/24 08:00:31;;;;;;;15.32;3.22;;;;;;;;;;5018346;28;20519;-81
2023/03/24 08:02:59;;;;;;;8.02;2.30;;;;;;;;;;5017849;28;20061;-81
2023/03/24 08:05:26;;;;;;;15.43;2.65;;;;;;;;;;5022427;28;20123;-81
2023/03/24 08:07:52;;;;;;;10.88;2.60;;;;;;;;;;5018826;28;20107;-79
2023/03/24 08:10:20;;;;;;;20.45;3.45;;;;;;;;;;5001555;28;20154;-81
2023/03/24 08:12:46;;;;;;;15.65;3.53;;;;;;;;;;5015693;28;20037;-81
2023/03/24 08:15:13;;;;;;;12.20;2.42;;;;;;;;;;5019617;28;20479;-78
2023/03/24 08:17:40;;;;;;;14.40;3.70;;;;;;;;;;5016672;28;20490;-79
2023/03/24 08:20:07;;;;;;;18.38;3.75;;;;;;;;;;5022636;28;20479;-78
2023/03/24 08:22:34;;;;;;;18.65;3.33;;;;;;;;;;5008412;28;21253;-78
2023/03/24 08:25:00;;;;;;;16.38;2.90;;;;;;;;;;5012448;28;20049;-78
2023/03/24 08:27:26;;;;;;;21.92;3.70;;;;;;;;;;4997200;28;20505;-78
2023/03/24 08:29:52;;;;;;;18.00;3.05;;;;;;;;;;5014260;28;20045;-78
2023/03/24 08:32:18;;;;;;;18.58;3.47;;;;;;;;;;4999842;28;20045;-79
2023/03/24 08:34:44;;;;;;;21.70;3.78;;;;;;;;;;4998907;28;20739;-79
2023/03/24 08:37:10;;;;;;;19.25;3.72;;;;;;;;;;4996313;28;20119;-79
2023/03/24 08:39:37;;;;;;;19.55;3.03;;;;;;;;;;5012523;28;20033;-78
2023/03/24 08:42:03;;;;;;;12.88;2.97;;;;;;;;;;5014962;28;20041;-79
2023/03/24 08:44:29;;;;;;;15.35;2.63;;;;;;;;;;5011132;28;20299;-78
2023/03/24 08:46:55;;;;;;;22.95;3.08;;;;;;;;;;5011073;28;20049;-78
2023/03/24 08:49:21;;;;;;;16.73;3.63;;;;;;;;;;5012001;28;20435;-78
2023/03/24 08:51:47;;;;;;;20.77;4.45;;;;;;;;;;5010197;28;20044;-78
2023/03/24 08:54:13;;;;;;;14.65;2.42;;;;;;;;;;4994140;28;20045;-78
2023/03/24 08:56:39;;;;;;;18.65;3.20;;;;;;;;;;4995472;28;20045;-78
2023/03/24 08:59:06;;;;;;;23.25;3.00;;;;;;;;;;4991835;28;20047;-78
2023/03/24 09:01:34;;;;;;;21.50;4.05;;;;;;;;;;4992851;28;20405;-78
2023/03/24 09:04:00;;;;;;;18.48;4.20;;;;;;;;;;5009820;28;22572;-78
2023/03/24 09:06:26;;;;;;;17.08;3.40;;;;;;;;;;4994992;28;20053;-78
2023/03/24 09:08:53;;;;;;;26.52;3.85;;;;;;;;;;5000025;28;20135;-77
2023/03/24 09:11:20;;;;;;;24.63;4.43;;;;;;;;;;4991362;28;20079;-76
2023/03/24 09:13:46;;;;;;;13.05;2.90;;;;;;;;;;4992062;28;20060;-77
2023/03/24 09:16:12;;;;;;;18.50;2.67;;;;;;;;;;5005547;28;20053;-79
2023/03/24 09:18:38;;;;;;;16.55;4.07;;;;;;;;;;5013319;28;20044;-78
2023/03/24 09:21:05;;;;;;;15.95;4.05;;;;;;;;;;5013547;28;20045;-78
2023/03/24 09:23:31;;;;;;;24.27;3.67;;;;;;;;;;5003085;28;20896;-78
2023/03/24 09:25:57;;;;;;;24.73;3.78;;;;;;;;;;5003300;28;20055;-79
2023/03/24 09:28:24;;;;;;;22.10;3.67;;;;;;;;;;5014287;28;20045;-78
2023/03/24 09:30:50;;;;;;;27.08;5.20;;;;;;;;;;4983328;28;21945;-79
2023/03/24 09:33:16;;;;;;;23.80;3.42;;;;;;;;;;5013420;28;20045;-79
2023/03/24 09:35:42;;;;;;;15.13;3.15;;;;;;;;;;5014560;28;20091;-79
2023/03/24 09:38:10;;;;;;;20.15;3.53;;;;;;;;;;5014884;28;20049;-79
2023/03/24 09:40:38;;;;;;;20.00;4.43;;;;;;;;;;5013334;28;20044;-79
2023/03/24 09:43:12;;;;;;;23.17;3.47;;;;;;;;;;4998096;28;20404;-79
2023/03/24 09:45:48;;;;;;;13.30;2.97;;;;;;;;;;5015070;28;20055;-79
2023/03/24 09:48:33;;;;;;;10.90;3.78;;;;;;;;;;5003630;28;20053;-78
2023/03/24 09:50:59;;;;;;;10.20;2.85;;;;;;;;;;4999965;28;20044;-78
2023/03/24 09:53:36;;;;;;;12.18;2.58;;;;;;;;;;5007691;28;20051;-77
2023/03/24 09:56:11;;;;;;;22.30;4.22;;;;;;;;;;5024492;28;20111;-77
2023/03/24 09:58:40;;;;;;;13.02;3.20;;;;;;;;;;5022132;28;20047;-78
2023/03/24 10:01:11;;;;;;;18.25;3.15;;;;;;;;;;4994250;28;20049;-77
2023/03/24 10:03:37;;;;;;;17.35;2.95;;;;;;;;;;5012605;28;20053;-79
2023/03/24 10:06:06;;;;;;;21.35;3.03;;;;;;;;;;5012183;28;20057;-78
2023/03/24 10:08:32;;;;;;;22.65;3.83;;;;;;;;;;5011860;28;20075;-78
2023/03/24 10:11:02;;;;;;;11.60;2.80;;;;;;;;;;5012501;28;20036;-79
2023/03/24 10:13:47;;;;;;;16.55;3.80;;;;;;;;;;5011845;28;20103;-79
2023/03/24 10:16:13;;;;;;;14.05;3.38;;;;;;;;;;5012757;28;20413;-79
2023/03/24 10:18:51;;;;;;;17.85;3.13;;;;;;;;;;5013478;28;20413;-79
2023/03/24 10:21:24;;;;;;;12.35;3.13;;;;;;;;;;5000159;28;20033;-79
2023/03/24 10:23:50;;;;;;;12.35;2.50;;;;;;;;;;5012415;28;20041;-79
2023/03/24 10:26:24;;;;;;;19.48;3.60;;;;;;;;;;5012227;28;20989;-79
2023/03/24 10:28:59;;;;;;;15.15;2.90;;;;;;;;;;5012660;28;20051;-79
2023/03/24 10:31:30;;;;;;;15.40;2.58;;;;;;;;;;4996929;28;20076;-79
2023/03/24 10:33:56;;;;;;;15.60;3.38;;;;;;;;;;5011334;28;20045;-78
2023/03/24 10:36:23;;;;;;;15.35;2.50;;;;;;;;;;5016663;28;20041;-78
2023/03/24 10:38:50;;;;;;;13.02;3.00;;;;;;;;;;5017304;28;21146;-78
2023/03/24 10:41:16;;;;;;;15.43;2.55;;;;;;;;;;5014461;28;20080;-79
2023/03/24 10:43:43;;;;;;;16.33;3.05;;;;;;;;;;4996724;28;20164;-79
2023/03/24 10:46:11;;;;;;;18.50;2.80;;;;;;;;;;5015088;28;20588;-78
2023/03/24 10:48:46;;;;;;;14.27;2.75;;;;;;;;;;5015450;28;21009;-79
2023/03/24 10:51:16;;;;;;;14.85;2.72;;;;;;;;;;4996145;28;20064;-79
2023/03/24 10:53:46;;;;;;;14.07;3.10;;;;;;;;;;5014617;28;20056;-79
2023/03/24 10:56:18;;;;;;;18.67;3.05;;;;;;;;;;4998228;28;20788;-79
2023/03/24 10:58:45;;;;;;;16.40;2.63;;;;;;;;;;4996731;28;20033;-79
2023/03/24 11:01:21;;;;;;;14.65;2.55;;;;;;;;;;5012331;28;20048;-79
2023/03/24 11:03:48;;;;;;;14.60;2.58;;;;;;;;;;5011995;28;20492;-79
2023/03/24 11:06:24;;;;;;;13.27;2.95;;;;;;;;;;4998261;28;20045;-79
2023/03/24 11:09:06;;;;;;;14.77;2.65;;;;;;;;;;5013655;28;20126;-80
2023/03/24 11:11:34;;;;;;;13.73;3.03;;;;;;;;;;4996618;28;20049;-79
2023/03/24 11:14:01;;;;;;;16.90;2.80;;;;;;;;;;5011170;28;20049;-79
2023/03/24 11:16:29;;;;;;;12.35;2.85;;;;;;;;;;4995101;28;20045;-79
2023/03/24 11:18:55;;;;;;;19.50;2.75;;;;;;;;;;5000960;28;20048;-80
2023/03/24 11:21:21;;;;;;;15.10;2.58;;;;;;;;;;4997884;28;20099;-79
2023/03/24 11:23:48;;;;;;;16.13;2.72;;;;;;;;;;5013570;28;20041;-79
2023/03/24 11:26:15;;;;;;;12.05;2.75;;;;;;;;;;5012969;28;20049;-78
2023/03/24 11:28:44;;;;;;;14.70;2.22;;;;;;;;;;5015093;28;20053;-79
2023/03/24 11:31:17;;;;;;;16.85;2.65;;;;;;;;;;5018439;28;20048;-76
2023/03/24 11:34:03;;;;;;;13.65;3.00;;;;;;;;;;5015812;28;20041;-77
2023/03/24 11:36:29;;;;;;;12.65;2.10;;;;;;;;;;5019233;28;20054;-76
2023/03/24 11:39:14;;;;;;;15.43;2.30;;;;;;;;;;5018983;28;20041;-76
2023/03/24 11:41:42;;;;;;;12.38;2.22;;;;;;;;;;5018772;28;20397;-76
2023/03/24 11:44:24;;;;;;;8.45;2.03;;;;;;;;;;4999080;28;20041;-76
2023/03/24 11:46:58;;;;;;;17.95;2.50;;;;;;;;;;5017437;28;20052;-76
2023/03/24 11:49:30;;;;;;;11.30;2.58;;;;;;;;;;5021427;28;20049;-76
2023/03/24 11:51:57;;;;;;;11.93;2.72;;;;;;;;;;5017505;28;20052;-76
2023/03/24 11:54:26;;;;;;;16.70;3.65;;;;;;;;;;5015578;28;20052;-76
2023/03/24 11:56:54;;;;;;;16.80;3.17;;;;;;;;;;5032369;28;20049;-76
2023/03/24 11:59:30;;;;;;;13.20;3.90;;;;;;;;;;5016395;28;20049;-76
2023/03/24 12:01:56;;;;;;;19.92;3.20;;;;;;;;;;5016833;28;20080;-76
2023/03/24 12:04:32;;;;;;;16.58;3.28;;;;;;;;;;5007917;28;20053;-76
2023/03/24 12:07:10;;;;;;;11.88;2.65;;;;;;;;;;5018865;28;20045;-75
2023/03/24 12:09:47;;;;;;;10.38;2.35;;;;;;;;;;5009569;28;20175;-76
2023/03/24 12:12:22;;;;;;;12.27;2.42;;;;;;;;;;4998335;28;21964;-76
2023/03/24 12:15:07;;;;;;;15.20;3.95;;;;;;;;;;5002622;28;20049;-76
2023/03/24 12:17:41;;;;;;;11.88;3.08;;;;;;;;;;5018298;28;20095;-76
2023/03/24 12:20:07;;;;;;;11.02;2.90;;;;;;;;;;5011695;28;20051;-76
2023/03/24 12:22:42;;;;;;;11.68;2.60;;;;;;;;;;5002525;28;20493;-76
2023/03/24 12:25:21;;;;;;;13.05;2.58;;;;;;;;;;5018372;28;20040;-76
2023/03/24 12:27:56;;;;;;;8.07;1.83;;;;;;;;;;5019091;28;22140;-76
2023/03/24 12:30:30;;;;;;;10.70;1.95;;;;;;;;;;5010430;28;20498;-76
2023/03/24 12:33:20;;;;;;;10.55;2.25;;;;;;;;;;5019369;28;21014;-76
2023/03/24 12:35:49;;;;;;;15.73;2.55;;;;;;;;;;5018679;28;20050;-76
2023/03/24 12:38:18;;;;;;;12.52;2.42;;;;;;;;;;5018217;28;20048;-77
2023/03/24 12:40:53;;;;;;;8.60;2.25;;;;;;;;;;5018660;28;20037;-77
2023/03/24 12:43:22;;;;;;;10.68;2.28;;;;;;;;;;5004292;28;20128;-76
2023/03/24 12:45:52;;;;;;;11.15;2.00;;;;;;;;;;5020452;28;20060;-75
2023/03/24 12:48:37;;;;;;;11.02;2.45;;;;;;;;;;5018684;28;20128;-76
2023/03/24 12:51:09;;;;;;;7.13;2.25;;;;;;;;;;5003051;28;20155;-75
2023/03/24 12:53:41;;;;;;;9.93;2.60;;;;;;;;;;5019551;28;20042;-76
2023/03/24 12:56:08;;;;;;;11.82;1.90;;;;;;;;;;5017517;28;20045;-77
2023/03/24 12:58:43;;;;;;;4.72;1.60;;;;;;;;;;5025217;28;20049;-76
2023/03/24 13:01:10;;;;;;;6.15;2.00;;;;;;;;;;5019043;28;20043;-77
2023/03/24 13:03:38;;;;;;;10.10;2.38;;;;;;;;;;5017458;28;20063;-77
2023/03/24 13:06:15;;;;;;;12.30;2.45;;;;;;;;;;5005368;28;20107;-76
2023/03/24 13:08:43;;;;;;;10.40;2.53;;;;;;;;;;5016909;28;20041;-75
2023/03/24 13:11:11;;;;;;;13.23;2.80;;;;;;;;;;5019566;28;20041;-75
2023/03/24 13:13:40;;;;;;;14.40;2.55;;;;;;;;;;5016773;28;20041;-76
2023/03/24 13:16:09;;;;;;;12.65;2.63;;;;;;;;;;5025475;28;20045;-75
2023/03/24 13:18:35;;;;;;;13.13;2.17;;;;;;;;;;5006435;28;20045;-75
2023/03/24 13:21:16;;;;;;;9.95;2.63;;;;;;;;;;5022830;28;20109;-74
2023/03/24 13:23:45;;;;;;;12.63;2.08;;;;;;;;;;5018178;28;20041;-74
2023/03/24 13:26:14;;;;;;;8.57;2.63;;;;;;;;;;5018631;28;20060;-74
2023/03/24 13:29:01;;;;;;;12.00;2.47;;;;;;;;;;5014784;28;20045;-74
2023/03/24 13:31:30;;;;;;;11.35;3.03;;;;;;;;;;5012245;28;20500;-75
2023/03/24 13:33:59;;;;;;;13.10;2.80;;;;;;;;;;5011932;28;20560;-74
2023/03/24 13:36:42;;;;;;;12.82;2.33;;;;;;;;;;5014615;28;20041;-74
2023/03/24 13:39:13;;;;;;;17.60;2.88;;;;;;;;;;5018004;28;20246;-79
2023/03/24 13:41:39;;;;;;;10.90;2.72;;;;;;;;;;5014179;28;20042;-79
2023/03/24 13:44:07;;;;;;;14.27;2.95;;;;;;;;;;5003014;28;20037;-80
2023/03/24 13:46:37;;;;;;;8.68;1.73;;;;;;;;;;5016466;28;20073;-81
2023/03/24 13:49:06;;;;;;;9.05;2.00;;;;;;;;;;5000532;28;20100;-76
2023/03/24 13:51:33;;;;;;;10.75;2.25;;;;;;;;;;5012643;28;20736;-76
2023/03/24 13:54:04;;;;;;;12.90;2.33;;;;;;;;;;5011575;28;20064;-76
2023/03/24 13:56:35;;;;;;;11.52;2.22;;;;;;;;;;5012781;28;20053;-75
2023/03/24 13:59:02;;;;;;;8.75;2.00;;;;;;;;;;5012294;28;20048;-74
2023/03/24 14:01:35;;;;;;;10.90;2.10;;;;;;;;;;5014612;28;20144;-75
2023/03/24 14:04:20;;;;;;;9.20;2.08;;;;;;;;;;4998330;28;20054;-74
2023/03/24 14:06:48;;;;;;;9.68;1.80;;;;;;;;;;5019205;28;20055;-81
2023/03/24 14:09:28;;;;;;;4.85;1.60;;;;;;;;;;5019255;28;20041;-81
2023/03/24 14:11:54;;;;;;;9.57;2.67;;;;;;;;;;4994744;28;20077;-75
2023/03/24 14:14:25;;;;;;;10.65;2.28;;;;;;;;;;5014488;28;20068;-75
2023/03/24 14:17:02;;;;;;;9.65;2.08;;;;;;;;;;5011874;28;20057;-75
2023/03/24 14:19:38;;;;;;;10.23;2.30;;;;;;;;;;5013241;28;20079;-75
2023/03/24 14:22:04;;;;;;;8.50;2.17;;;;;;;;;;5018578;28;20052;-80
2023/03/24 14:24:31;;;;;;;13.35;3.00;;;;;;;;;;5017651;28;20960;-80
2023/03/24 14:26:58;;;;;;;12.82;2.25;;;;;;;;;;5005165;28;20049;-80
2023/03/24 14:29:51;;;;;;;14.43;3.00;;;;;;;;;;5018480;28;20049;-80
2023/03/24 14:32:21;;;;;;;11.75;2.33;;;;;;;;;;4999985;28;20053;-83
2023/03/24 14:35:10;;;;;;;11.80;2.40;;;;;;;;;;5016284;28;20049;-80
2023/03/24 14:37:47;;;;;;;10.98;2.58;;;;;;;;;;5001949;28;20048;-81
2023/03/24 14:40:24;;;;;;;10.48;2.53;;;;;;;;;;5010115;28;20040;-81
2023/03/24 14:42:54;;;;;;;13.18;2.75;;;;;;;;;;5015979;28;20041;-80
2023/03/24 14:45:32;;;;;;;25.65;4.50;;;;;;;;;;5004586;28;20091;-76
2023/03/24 14:47:59;;;;;;;12.65;2.55;;;;;;;;;;5013121;28;20388;-76
2023/03/24 14:50:27;;;;;;;16.02;2.80;;;;;;;;;;4997268;28;20428;-79